Smearney, Arkansas
Current Conditions -  °F | °C
As of 2:53 PM on Thursday 27 Nov 2014 (Local Time) from KLLQ Reporting Station
Clear Clear  
Wind Chill: 49°   Ceiling: Unl
Heat Index: 49°   Visibility: 10mi
Dew Point: 28°   Wind: 3mph
Humidity: 44%   Direction: 270°W
Pressure: 30.48"   Gusts: NA
Location:  33.37°N, 92.1129°W
Report Text: KLLQ 272053Z AUTO 27003KT 10SM CLR 09/M02 A3048 RMK AO2 SLP321 T00941022 55016
Loading
Personal Weather Stations






























Interactive Weather Map New forecast layout! Learn more

10-Day Weather Forecast

Advertisements
Track Severe Weather on mobile